sensor_id;sensor_type;location;lat;lon;timestamp;pressure;altitude;pressure_sealevel;temperature;humidity
4326;BME280;58429;49.826;10.880;2023-04-10T00:00:41;99440;;;6.39;66.88
4326;BME280;58429;49.826;10.880;2023-04-10T00:01:41;99433;;;6.31;67.35
4326;BME280;58429;49.826;10.880;2023-04-10T00:02:41;99437;;;6.31;67.68
4326;BME280;58429;49.826;10.880;2023-04-10T00:03:41;99440;;;6.3;67.95
4326;BME280;58429;49.826;10.880;2023-04-10T00:04:41;99440;;;6.31;68.15
4326;BME280;58429;49.826;10.880;2023-04-10T00:05:41;99437;;;6.28;68.34
4326;BME280;58429;49.826;10.880;2023-04-10T00:06:41;99445;;;6.26;68.59
4326;BME280;58429;49.826;10.880;2023-04-10T00:07:41;99440;;;6.24;68.52
4326;BME280;58429;49.826;10.880;2023-04-10T00:08:41;99443;;;6.22;68.56
4326;BME280;58429;49.826;10.880;2023-04-10T00:09:41;99439;;;6.25;68.68
4326;BME280;58429;49.826;10.880;2023-04-10T00:10:41;99446;;;6.24;68.58
4326;BME280;58429;49.826;10.880;2023-04-10T00:11:41;99443;;;6.24;68.64
4326;BME280;58429;49.826;10.880;2023-04-10T00:12:41;99439;;;6.25;68.51
4326;BME280;58429;49.826;10.880;2023-04-10T00:13:41;99438;;;6.24;68.29
4326;BME280;58429;49.826;10.880;2023-04-10T00:14:41;99440;;;6.19;68.69
4326;BME280;58429;49.826;10.880;2023-04-10T00:15:41;99445;;;6.16;68.37
4326;BME280;58429;49.826;10.880;2023-04-10T00:16:41;99433;;;6.11;68.51
4326;BME280;58429;49.826;10.880;2023-04-10T00:17:41;99443;;;6.06;68.55
4326;BME280;58429;49.826;10.880;2023-04-10T00:18:41;99436;;;6.03;68.51
4326;BME280;58429;49.826;10.880;2023-04-10T00:19:41;99439;;;5.97;68.67
4326;BME280;58429;49.826;10.880;2023-04-10T00:20:41;99441;;;5.88;69.35
4326;BME280;58429;49.826;10.880;2023-04-10T00:21:41;99438;;;5.82;69.73
4326;BME280;58429;49.826;10.880;2023-04-10T00:22:41;99439;;;5.75;70.09
4326;BME280;58429;49.826;10.880;2023-04-10T00:23:41;99436;;;5.68;69.79
4326;BME280;58429;49.826;10.880;2023-04-10T00:24:41;99435;;;5.67;69.79
4326;BME280;58429;49.826;10.880;2023-04-10T00:25:41;99433;;;5.68;69.79
4326;BME280;58429;49.826;10.880;2023-04-10T00:26:41;99425;;;5.67;69.91
4326;BME280;58429;49.826;10.880;2023-04-10T00:27:41;99426;;;5.66;69.6
4326;BME280;58429;49.826;10.880;2023-04-10T00:28:41;99422;;;5.68;69.59
4326;BME280;58429;49.826;10.880;2023-04-10T00:29:41;99423;;;5.69;69.46
4326;BME280;58429;49.826;10.880;2023-04-10T00:30:41;99422;;;5.64;69.24
4326;BME280;58429;49.826;10.880;2023-04-10T00:31:41;99422;;;5.63;69.2
4326;BME280;58429;49.826;10.880;2023-04-10T00:32:41;99422;;;5.62;69
4326;BME280;58429;49.826;10.880;2023-04-10T00:33:41;99421;;;5.61;69.27
4326;BME280;58429;49.826;10.880;2023-04-10T00:34:41;99422;;;5.57;69.43
4326;BME280;58429;49.826;10.880;2023-04-10T00:35:41;99421;;;5.6;69.4
4326;BME280;58429;49.826;10.880;2023-04-10T00:36:41;99424;;;5.56;69.52
4326;BME280;58429;49.826;10.880;2023-04-10T00:37:41;99430;;;5.48;69.96
4326;BME280;58429;49.826;10.880;2023-04-10T00:38:41;99424;;;5.42;70.86
4326;BME280;58429;49.826;10.880;2023-04-10T00:39:41;99424;;;5.39;71.05
4326;BME280;58429;49.826;10.880;2023-04-10T00:40:41;99420;;;5.4;70.89
4326;BME280;58429;49.826;10.880;2023-04-10T00:41:41;99429;;;5.38;70.99
4326;BME280;58429;49.826;10.880;2023-04-10T00:42:41;99421;;;5.35;70.8
4326;BME280;58429;49.826;10.880;2023-04-10T00:43:41;99423;;;5.37;70.97
4326;BME280;58429;49.826;10.880;2023-04-10T00:44:41;99417;;;5.34;71.34
4326;BME280;58429;49.826;10.880;2023-04-10T00:45:41;99424;;;5.33;71.05
4326;BME280;58429;49.826;10.880;2023-04-10T00:46:41;99416;;;5.34;70.86
4326;BME280;58429;49.826;10.880;2023-04-10T00:47:41;99418;;;5.32;70.92
4326;BME280;58429;49.826;10.880;2023-04-10T00:48:41;99416;;;5.31;71.19
4326;BME280;58429;49.826;10.880;2023-04-10T00:49:41;99425;;;5.24;71.8
4326;BME280;58429;49.826;10.880;2023-04-10T00:50:41;99413;;;5.15;72.08
4326;BME280;58429;49.826;10.880;2023-04-10T00:51:41;99419;;;5.09;72.02
4326;BME280;58429;49.826;10.880;2023-04-10T00:52:41;99414;;;5.09;71.76
4326;BME280;58429;49.826;10.880;2023-04-10T00:53:41;99422;;;5.08;71.58
4326;BME280;58429;49.826;10.880;2023-04-10T00:54:41;99409;;;5.04;71.72
4326;BME280;58429;49.826;10.880;2023-04-10T00:55:41;99421;;;5.06;71.65
4326;BME280;58429;49.826;10.880;2023-04-10T00:56:41;99416;;;5.04;71.67
4326;BME280;58429;49.826;10.880;2023-04-10T00:57:46;99414;;;4.94;71.97
4326;BME280;58429;49.826;10.880;2023-04-10T00:58:41;99411;;;4.92;72.12
4326;BME280;58429;49.826;10.880;2023-04-10T00:59:41;99411;;;4.91;72.38
4326;BME280;58429;49.826;10.880;2023-04-10T01:00:41;99414;;;4.87;72.3
4326;BME280;58429;49.826;10.880;2023-04-10T01:01:41;99406;;;4.79;72.97
4326;BME280;58429;49.826;10.880;2023-04-10T01:02:41;99414;;;4.66;73.11
4326;BME280;58429;49.826;10.880;2023-04-10T01:03:41;99411;;;4.59;73.9
4326;BME280;58429;49.826;10.880;2023-04-10T01:04:41;99402;;;4.52;74.18
4326;BME280;58429;49.826;10.880;2023-04-10T01:05:42;99408;;;4.49;73.32
4326;BME280;58429;49.826;10.880;2023-04-10T01:06:46;99399;;;4.51;73.47
4326;BME280;58429;49.826;10.880;2023-04-10T01:07:45;99406;;;4.49;73.39
4326;BME280;58429;49.826;10.880;2023-04-10T01:08:42;99404;;;4.55;73.06
4326;BME280;58429;49.826;10.880;2023-04-10T01:09:43;99403;;;4.56;72.99
4326;BME280;58429;49.826;10.880;2023-04-10T01:10:42;99406;;;4.55;72.82
4326;BME280;58429;49.826;10.880;2023-04-10T01:11:44;99399;;;4.58;72.78
4326;BME280;58429;49.826;10.880;2023-04-10T01:12:43;99407;;;4.59;72.38
4326;BME280;58429;49.826;10.880;2023-04-10T01:13:42;99411;;;4.57;71.95
4326;BME280;58429;49.826;10.880;2023-04-10T01:14:44;99413;;;4.58;71.87
4326;BME280;58429;49.826;10.880;2023-04-10T01:15:41;99416;;;4.53;71.84
4326;BME280;58429;49.826;10.880;2023-04-10T01:16:44;99411;;;4.51;71.88
4326;BME280;58429;49.826;10.880;2023-04-10T01:17:42;99418;;;4.54;71.82
4326;BME280;58429;49.826;10.880;2023-04-10T01:18:43;99424;;;4.56;71.93
4326;BME280;58429;49.826;10.880;2023-04-10T01:19:48;99425;;;4.55;71.77
4326;BME280;58429;49.826;10.880;2023-04-10T01:20:41;99416;;;4.53;71.85
4326;BME280;58429;49.826;10.880;2023-04-10T01:21:41;99416;;;4.53;72.07
4326;BME280;58429;49.826;10.880;2023-04-10T01:22:44;99413;;;4.54;72.45
4326;BME280;58429;49.826;10.880;2023-04-10T01:23:48;99418;;;4.49;72.33
4326;BME280;58429;49.826;10.880;2023-04-10T01:24:46;99415;;;4.49;72.41
4326;BME280;58429;49.826;10.880;2023-04-10T01:25:42;99414;;;4.45;72.33
4326;BME280;58429;49.826;10.880;2023-04-10T01:26:46;99414;;;4.45;72.56
4326;BME280;58429;49.826;10.880;2023-04-10T01:27:43;99420;;;4.44;72.65
4326;BME280;58429;49.826;10.880;2023-04-10T01:28:45;99421;;;4.45;73.36
4326;BME280;58429;49.826;10.880;2023-04-10T01:29:42;99416;;;4.38;73.85
4326;BME280;58429;49.826;10.880;2023-04-10T01:30:41;99414;;;4.39;73.59
4326;BME280;58429;49.826;10.880;2023-04-10T01:31:41;99414;;;4.37;73.63
4326;BME280;58429;49.826;10.880;2023-04-10T01:32:41;99414;;;4.38;73.54
4326;BME280;58429;49.826;10.880;2023-04-10T01:33:41;99421;;;4.38;73.43
4326;BME280;58429;49.826;10.880;2023-04-10T01:34:42;99422;;;4.39;73.42
4326;BME280;58429;49.826;10.880;2023-04-10T01:35:42;99424;;;4.43;73.22
4326;BME280;58429;49.826;10.880;2023-04-10T01:36:44;99421;;;4.38;73.22
4326;BME280;58429;49.826;10.880;2023-04-10T01:37:41;99419;;;4.39;73.53
4326;BME280;58429;49.826;10.880;2023-04-10T01:38:41;99419;;;4.42;73.43
4326;BME280;58429;49.826;10.880;2023-04-10T01:39:41;99419;;;4.41;73.74
4326;BME280;58429;49.826;10.880;2023-04-10T01:40:41;99423;;;4.36;73.6
4326;BME280;58429;49.826;10.880;2023-04-10T01:41:41;99422;;;4.38;73.63
4326;BME280;58429;49.826;10.880;2023-04-10T01:42:42;99426;;;4.35;73.21
4326;BME280;58429;49.826;10.880;2023-04-10T01:43:41;99419;;;4.33;73.23
4326;BME280;58429;49.826;10.880;2023-04-10T01:44:41;99423;;;4.28;73.52
4326;BME280;58429;49.826;10.880;2023-04-10T01:45:41;99422;;;4.29;73.55
4326;BME280;58429;49.826;10.880;2023-04-10T01:46:41;99416;;;4.29;73.39
4326;BME280;58429;49.826;10.880;2023-04-10T01:47:41;99418;;;4.29;73.54
4326;BME280;58429;49.826;10.880;2023-04-10T01:48:41;99417;;;4.31;73.37
4326;BME280;58429;49.826;10.880;2023-04-10T01:49:41;99408;;;4.28;73.66
4326;BME280;58429;49.826;10.880;2023-04-10T01:50:41;99418;;;4.24;73.82
4326;BME280;58429;49.826;10.880;2023-04-10T01:51:41;99422;;;4.22;73.93
4326;BME280;58429;49.826;10.880;2023-04-10T01:52:41;99409;;;4.12;74.08
4326;BME280;58429;49.826;10.880;2023-04-10T01:53:41;99422;;;4.1;74.01
4326;BME280;58429;49.826;10.880;2023-04-10T01:54:41;99422;;;4.1;74.03
4326;BME280;58429;49.826;10.880;2023-04-10T01:55:41;99423;;;4.07;73.93
4326;BME280;58429;49.826;10.880;2023-04-10T01:56:41;99420;;;4.07;73.97
4326;BME280;58429;49.826;10.880;2023-04-10T01:57:41;99424;;;4.05;73.97
4326;BME280;58429;49.826;10.880;2023-04-10T01:58:41;99429;;;3.98;74.12
4326;BME280;58429;49.826;10.880;2023-04-10T01:59:41;99428;;;4.03;74
4326;BME280;58429;49.826;10.880;2023-04-10T02:00:41;99433;;;4.02;73.9
4326;BME280;58429;49.826;10.880;2023-04-10T02:01:41;99424;;;4.02;73.73
4326;BME280;58429;49.826;10.880;2023-04-10T02:02:41;99429;;;4.06;73.57
4326;BME280;58429;49.826;10.880;2023-04-10T02:03:41;99424;;;4.05;73.47
4326;BME280;58429;49.826;10.880;2023-04-10T02:04:41;99423;;;4.06;73.34
4326;BME280;58429;49.826;10.880;2023-04-10T02:05:44;99427;;;4.05;73.16
4326;BME280;58429;49.826;10.880;2023-04-10T02:06:48;99424;;;4.07;73.32
4326;BME280;58429;49.826;10.880;2023-04-10T02:07:43;99429;;;4.03;73.48
4326;BME280;58429;49.826;10.880;2023-04-10T02:08:41;99424;;;4.02;73.48
4326;BME280;58429;49.826;10.880;2023-04-10T02:09:43;99427;;;4.05;73.48
4326;BME280;58429;49.826;10.880;2023-04-10T02:10:43;99427;;;4.04;73.36
4326;BME280;58429;49.826;10.880;2023-04-10T02:11:43;99425;;;4.05;73.26
4326;BME280;58429;49.826;10.880;2023-04-10T02:12:43;99421;;;4.07;72.97
4326;BME280;58429;49.826;10.880;2023-04-10T02:13:41;99421;;;4.01;72.76
4326;BME280;58429;49.826;10.880;2023-04-10T02:14:41;99422;;;3.98;72.76
4326;BME280;58429;49.826;10.880;2023-04-10T02:15:41;99421;;;4.02;72.74
4326;BME280;58429;49.826;10.880;2023-04-10T02:16:41;99419;;;4;72.65
4326;BME280;58429;49.826;10.880;2023-04-10T02:17:41;99410;;;4.01;72.68
4326;BME280;58429;49.826;10.880;2023-04-10T02:18:41;99425;;;4.01;72.73
4326;BME280;58429;49.826;10.880;2023-04-10T02:19:41;99424;;;4;72.74
4326;BME280;58429;49.826;10.880;2023-04-10T02:20:41;99414;;;3.98;72.71
4326;BME280;58429;49.826;10.880;2023-04-10T02:21:41;99422;;;3.95;72.66
4326;BME280;58429;49.826;10.880;2023-04-10T02:22:41;99424;;;3.95;72.7
4326;BME280;58429;49.826;10.880;2023-04-10T02:23:41;99422;;;3.91;72.89
4326;BME280;58429;49.826;10.880;2023-04-10T02:24:41;99414;;;3.91;72.86
4326;BME280;58429;49.826;10.880;2023-04-10T02:25:41;99418;;;3.9;72.92
4326;BME280;58429;49.826;10.880;2023-04-10T02:26:44;99420;;;3.9;72.95
4326;BME280;58429;49.826;10.880;2023-04-10T02:27:41;99412;;;3.89;72.98
4326;BME280;58429;49.826;10.880;2023-04-10T02:28:41;99420;;;3.86;73.22
4326;BME280;58429;49.826;10.880;2023-04-10T02:29:41;99413;;;3.88;73.25
4326;BME280;58429;49.826;10.880;2023-04-10T02:30:41;99420;;;3.89;73.18
4326;BME280;58429;49.826;10.880;2023-04-10T02:31:41;99424;;;3.87;73.21
4326;BME280;58429;49.826;10.880;2023-04-10T02:32:41;99411;;;3.91;73.13
4326;BME280;58429;49.826;10.880;2023-04-10T02:33:41;99417;;;3.86;73.13
4326;BME280;58429;49.826;10.880;2023-04-10T02:34:41;99414;;;3.82;73.17
4326;BME280;58429;49.826;10.880;2023-04-10T02:35:41;99417;;;3.82;73.4
4326;BME280;58429;49.826;10.880;2023-04-10T02:36:41;99420;;;3.83;73.47
4326;BME280;58429;49.826;10.880;2023-04-10T02:37:41;99420;;;3.82;73.39
4326;BME280;58429;49.826;10.880;2023-04-10T02:38:41;99423;;;3.79;73.43
4326;BME280;58429;49.826;10.880;2023-04-10T02:39:41;99429;;;3.8;73.52
4326;BME280;58429;49.826;10.880;2023-04-10T02:40:41;99416;;;3.78;73.53
4326;BME280;58429;49.826;10.880;2023-04-10T02:41:41;99420;;;3.75;73.59
4326;BME280;58429;49.826;10.880;2023-04-10T02:42:41;99431;;;3.76;73.47
4326;BME280;58429;49.826;10.880;2023-04-10T02:43:41;99430;;;3.76;73.6
4326;BME280;58429;49.826;10.880;2023-04-10T02:44:41;99431;;;3.72;73.96
4326;BME280;58429;49.826;10.880;2023-04-10T02:45:41;99428;;;3.69;74.07
4326;BME280;58429;49.826;10.880;2023-04-10T02:46:41;99425;;;3.66;74.19
4326;BME280;58429;49.826;10.880;2023-04-10T02:47:41;99422;;;3.64;74.72
4326;BME280;58429;49.826;10.880;2023-04-10T02:48:41;99426;;;3.61;75.04
4326;BME280;58429;49.826;10.880;2023-04-10T02:49:41;99425;;;3.55;75.16
4326;BME280;58429;49.826;10.880;2023-04-10T02:50:41;99424;;;3.55;75.15
4326;BME280;58429;49.826;10.880;2023-04-10T02:51:41;99426;;;3.54;75.03
4326;BME280;58429;49.826;10.880;2023-04-10T02:52:41;99430;;;3.5;75.42
4326;BME280;58429;49.826;10.880;2023-04-10T02:53:41;99423;;;3.41;75.53
4326;BME280;58429;49.826;10.880;2023-04-10T02:54:41;99425;;;3.39;75.42
4326;BME280;58429;49.826;10.880;2023-04-10T02:55:41;99420;;;3.35;75.4
4326;BME280;58429;49.826;10.880;2023-04-10T02:56:41;99427;;;3.28;75.49
4326;BME280;58429;49.826;10.880;2023-04-10T02:57:42;99427;;;3.27;75.28
4326;BME280;58429;49.826;10.880;2023-04-10T02:58:41;99431;;;3.19;75.65
4326;BME280;58429;49.826;10.880;2023-04-10T02:59:41;99433;;;3.1;75.69
4326;BME280;58429;49.826;10.880;2023-04-10T03:00:46;99432;;;3.04;75.75
4326;BME280;58429;49.826;10.880;2023-04-10T03:01:41;99429;;;3.05;75.65
4326;BME280;58429;49.826;10.880;2023-04-10T03:02:41;99435;;;3.03;75.46
4326;BME280;58429;49.826;10.880;2023-04-10T03:03:41;99429;;;3;75.52
4326;BME280;58429;49.826;10.880;2023-04-10T03:04:41;99429;;;2.97;75.44
4326;BME280;58429;49.826;10.880;2023-04-10T03:05:41;99427;;;2.93;75.64
4326;BME280;58429;49.826;10.880;2023-04-10T03:06:41;99435;;;2.88;75.73
4326;BME280;58429;49.826;10.880;2023-04-10T03:07:41;99434;;;2.91;75.54
4326;BME280;58429;49.826;10.880;2023-04-10T03:08:41;99432;;;2.9;75.36
4326;BME280;58429;49.826;10.880;2023-04-10T03:09:41;99431;;;2.95;75.26
4326;BME280;58429;49.826;10.880;2023-04-10T03:10:41;99432;;;2.93;75.17
4326;BME280;58429;49.826;10.880;2023-04-10T03:11:41;99439;;;2.93;75.24
4326;BME280;58429;49.826;10.880;2023-04-10T03:12:41;99433;;;2.92;75.17
4326;BME280;58429;49.826;10.880;2023-04-10T03:13:41;99430;;;2.9;75.15
4326;BME280;58429;49.826;10.880;2023-04-10T03:14:41;99429;;;2.86;75.12
4326;BME280;58429;49.826;10.880;2023-04-10T03:15:41;99428;;;2.86;75.11
4326;BME280;58429;49.826;10.880;2023-04-10T03:16:41;99429;;;2.86;74.96
4326;BME280;58429;49.826;10.880;2023-04-10T03:17:41;99432;;;2.85;75.07
4326;BME280;58429;49.826;10.880;2023-04-10T03:18:41;99429;;;2.83;75.21
4326;BME280;58429;49.826;10.880;2023-04-10T03:19:41;99423;;;2.83;75.14
4326;BME280;58429;49.826;10.880;2023-04-10T03:20:41;99429;;;2.83;75.07
4326;BME280;58429;49.826;10.880;2023-04-10T03:21:41;99425;;;2.86;75.1
4326;BME280;58429;49.826;10.880;2023-04-10T03:22:41;99418;;;2.85;74.95
4326;BME280;58429;49.826;10.880;2023-04-10T03:23:41;99425;;;2.89;74.98
4326;BME280;58429;49.826;10.880;2023-04-10T03:24:41;99421;;;2.89;74.9
4326;BME280;58429;49.826;10.880;2023-04-10T03:25:41;99429;;;2.86;74.92
4326;BME280;58429;49.826;10.880;2023-04-10T03:26:41;99430;;;2.89;74.89
4326;BME280;58429;49.826;10.880;2023-04-10T03:27:41;99425;;;2.94;74.76
4326;BME280;58429;49.826;10.880;2023-04-10T03:28:41;99423;;;2.93;74.75
4326;BME280;58429;49.826;10.880;2023-04-10T03:29:41;99413;;;2.91;74.69
4326;BME280;58429;49.826;10.880;2023-04-10T03:30:41;99413;;;2.96;74.66
4326;BME280;58429;49.826;10.880;2023-04-10T03:31:41;99416;;;2.98;74.64
4326;BME280;58429;49.826;10.880;2023-04-10T03:32:41;99415;;;2.98;74.63
4326;BME280;58429;49.826;10.880;2023-04-10T03:33:41;99413;;;3.02;74.53
4326;BME280;58429;49.826;10.880;2023-04-10T03:34:41;99414;;;3.03;74.59
4326;BME280;58429;49.826;10.880;2023-04-10T03:35:41;99415;;;3;74.51
4326;BME280;58429;49.826;10.880;2023-04-10T03:36:41;99410;;;3.04;74.36
4326;BME280;58429;49.826;10.880;2023-04-10T03:37:41;99411;;;2.96;74.35
4326;BME280;58429;49.826;10.880;2023-04-10T03:38:41;99411;;;2.98;74.4
4326;BME280;58429;49.826;10.880;2023-04-10T03:39:41;99408;;;2.96;74.33
4326;BME280;58429;49.826;10.880;2023-04-10T03:40:41;99411;;;2.97;74.19
4326;BME280;58429;49.826;10.880;2023-04-10T03:41:41;99402;;;2.93;74.04
4326;BME280;58429;49.826;10.880;2023-04-10T03:42:41;99403;;;2.93;73.94
4326;BME280;58429;49.826;10.880;2023-04-10T03:43:41;99407;;;2.94;73.94
4326;BME280;58429;49.826;10.880;2023-04-10T03:44:41;99406;;;2.92;73.97
4326;BME280;58429;49.826;10.880;2023-04-10T03:45:41;99410;;;2.9;73.92
4326;BME280;58429;49.826;10.880;2023-04-10T03:46:41;99407;;;2.86;73.89
4326;BME280;58429;49.826;10.880;2023-04-10T03:47:41;99409;;;2.86;73.93
4326;BME280;58429;49.826;10.880;2023-04-10T03:48:41;99409;;;2.86;73.92
4326;BME280;58429;49.826;10.880;2023-04-10T03:49:41;99400;;;2.83;73.95
4326;BME280;58429;49.826;10.880;2023-04-10T03:50:41;99405;;;2.81;73.98
4326;BME280;58429;49.826;10.880;2023-04-10T03:51:41;99400;;;2.81;74.02
4326;BME280;58429;49.826;10.880;2023-04-10T03:52:41;99401;;;2.79;74.04
4326;BME280;58429;49.826;10.880;2023-04-10T03:53:41;99406;;;2.82;73.97
4326;BME280;58429;49.826;10.880;2023-04-10T03:54:41;99404;;;2.82;73.97
4326;BME280;58429;49.826;10.880;2023-04-10T03:55:41;99399;;;2.8;74.03
4326;BME280;58429;49.826;10.880;2023-04-10T03:56:41;99408;;;2.79;74.05
4326;BME280;58429;49.826;10.880;2023-04-10T03:57:41;99406;;;2.78;74.03
4326;BME280;58429;49.826;10.880;2023-04-10T03:58:41;99396;;;2.79;73.97
4326;BME280;58429;49.826;10.880;2023-04-10T03:59:41;99398;;;2.81;73.95
4326;BME280;58429;49.826;10.880;2023-04-10T04:00:41;99401;;;2.8;73.98
4326;BME280;58429;49.826;10.880;2023-04-10T04:01:41;99397;;;2.82;74.04
4326;BME280;58429;49.826;10.880;2023-04-10T04:02:41;99403;;;2.83;74.05
4326;BME280;58429;49.826;10.880;2023-04-10T04:03:41;99403;;;2.8;74.11
4326;BME280;58429;49.826;10.880;2023-04-10T04:04:41;99410;;;2.8;74.16
4326;BME280;58429;49.826;10.880;2023-04-10T04:05:41;99408;;;2.78;74.26
4326;BME280;58429;49.826;10.880;2023-04-10T04:06:41;99412;;;2.78;74.26
4326;BME280;58429;49.826;10.880;2023-04-10T04:07:41;99412;;;2.76;74.2
4326;BME280;58429;49.826;10.880;2023-04-10T04:08:41;99408;;;2.76;74.06
4326;BME280;58429;49.826;10.880;2023-04-10T04:09:41;99405;;;2.74;74.05
4326;BME280;58429;49.826;10.880;2023-04-10T04:10:41;99408;;;2.77;74.16
4326;BME280;58429;49.826;10.880;2023-04-10T04:11:41;99410;;;2.77;74.29
4326;BME280;58429;49.826;10.880;2023-04-10T04:12:41;99411;;;2.77;74.31
4326;BME280;58429;49.826;10.880;2023-04-10T04:13:41;99416;;;2.77;74.23
4326;BME280;58429;49.826;10.880;2023-04-10T04:14:41;99414;;;2.76;74.21
4326;BME280;58429;49.826;10.880;2023-04-10T04:15:41;99419;;;2.74;74.26
4326;BME280;58429;49.826;10.880;2023-04-10T04:16:41;99417;;;2.73;74.67
4326;BME280;58429;49.826;10.880;2023-04-10T04:17:41;99425;;;2.68;74.8
4326;BME280;58429;49.826;10.880;2023-04-10T04:18:41;99415;;;2.67;74.95
4326;BME280;58429;49.826;10.880;2023-04-10T04:19:41;99425;;;2.65;75.03
4326;BME280;58429;49.826;10.880;2023-04-10T04:20:46;99419;;;2.6;75.68
4326;BME280;58429;49.826;10.880;2023-04-10T04:21:41;99422;;;2.56;75.99
4326;BME280;58429;49.826;10.880;2023-04-10T04:22:41;99422;;;2.57;75.93
4326;BME280;58429;49.826;10.880;2023-04-10T04:23:41;99419;;;2.53;76.39
4326;BME280;58429;49.826;10.880;2023-04-10T04:24:41;99425;;;2.53;76.29
4326;BME280;58429;49.826;10.880;2023-04-10T04:25:41;99418;;;2.5;76.22
4326;BME280;58429;49.826;10.880;2023-04-10T04:26:41;99418;;;2.52;76.04
4326;BME280;58429;49.826;10.880;2023-04-10T04:27:41;99408;;;2.49;75.79
4326;BME280;58429;49.826;10.880;2023-04-10T04:28:41;99410;;;2.46;75.69
4326;BME280;58429;49.826;10.880;2023-04-10T04:29:41;99404;;;2.53;75.6
4326;BME280;58429;49.826;10.880;2023-04-10T04:30:41;99415;;;2.53;75.45
4326;BME280;58429;49.826;10.880;2023-04-10T04:31:41;99409;;;2.54;75.38
4326;BME280;58429;49.826;10.880;2023-04-10T04:32:41;99412;;;2.52;75.33
4326;BME280;58429;49.826;10.880;2023-04-10T04:33:41;99406;;;2.51;75.22
4326;BME280;58429;49.826;10.880;2023-04-10T04:34:41;99408;;;2.5;75.16
4326;BME280;58429;49.826;10.880;2023-04-10T04:35:41;99417;;;2.48;75.07
4326;BME280;58429;49.826;10.880;2023-04-10T04:36:41;99419;;;2.47;75.1
4326;BME280;58429;49.826;10.880;2023-04-10T04:37:41;99426;;;2.43;75.04
4326;BME280;58429;49.826;10.880;2023-04-10T04:38:41;99428;;;2.44;75.14
4326;BME280;58429;49.826;10.880;2023-04-10T04:39:41;99425;;;2.38;75.23
4326;BME280;58429;49.826;10.880;2023-04-10T04:40:41;99433;;;2.4;75.48
4326;BME280;58429;49.826;10.880;2023-04-10T04:41:41;99434;;;2.37;75.66
4326;BME280;58429;49.826;10.880;2023-04-10T04:42:41;99430;;;2.41;75.75
4326;BME280;58429;49.826;10.880;2023-04-10T04:43:41;99433;;;2.37;75.79
4326;BME280;58429;49.826;10.880;2023-04-10T04:44:41;99438;;;2.37;75.81
4326;BME280;58429;49.826;10.880;2023-04-10T04:45:41;99425;;;2.36;76.09
4326;BME280;58429;49.826;10.880;2023-04-10T04:46:41;99439;;;2.35;76.19
4326;BME280;58429;49.826;10.880;2023-04-10T04:47:41;99437;;;2.34;76.24
4326;BME280;58429;49.826;10.880;2023-04-10T04:48:41;99442;;;2.33;76.52
4326;BME280;58429;49.826;10.880;2023-04-10T04:49:41;99438;;;2.32;76.81
4326;BME280;58429;49.826;10.880;2023-04-10T04:50:41;99437;;;2.3;76.81
4326;BME280;58429;49.826;10.880;2023-04-10T04:51:41;99441;;;2.3;76.77
4326;BME280;58429;49.826;10.880;2023-04-10T04:52:42;99444;;;2.31;76.66
4326;BME280;58429;49.826;10.880;2023-04-10T04:53:41;99443;;;2.31;76.62
4326;BME280;58429;49.826;10.880;2023-04-10T04:54:41;99439;;;2.26;76.6
4326;BME280;58429;49.826;10.880;2023-04-10T04:55:41;99445;;;2.29;76.66
4326;BME280;58429;49.826;10.880;2023-04-10T04:56:41;99443;;;2.29;76.73
4326;BME280;58429;49.826;10.880;2023-04-10T04:57:41;99444;;;2.29;76.82
4326;BME280;58429;49.826;10.880;2023-04-10T04:58:41;99442;;;2.26;76.94
4326;BME280;58429;49.826;10.880;2023-04-10T04:59:41;99442;;;2.28;76.85
4326;BME280;58429;49.826;10.880;2023-04-10T05:00:41;99442;;;2.27;76.91
4326;BME280;58429;49.826;10.880;2023-04-10T05:01:41;99445;;;2.27;76.88
4326;BME280;58429;49.826;10.880;2023-04-10T05:02:41;99446;;;2.29;76.71
4326;BME280;58429;49.826;10.880;2023-04-10T05:03:41;99447;;;2.31;76.63
4326;BME280;58429;49.826;10.880;2023-04-10T05:04:41;99446;;;2.33;76.56
4326;BME280;58429;49.826;10.880;2023-04-10T05:05:41;99445;;;2.33;76.47
4326;BME280;58429;49.826;10.880;2023-04-10T05:06:41;99441;;;2.33;76.52
4326;BME280;58429;49.826;10.880;2023-04-10T05:07:41;99435;;;2.35;76.62
4326;BME280;58429;49.826;10.880;2023-04-10T05:08:41;99449;;;2.36;76.57
4326;BME280;58429;49.826;10.880;2023-04-10T05:09:41;99444;;;2.35;76.5
4326;BME280;58429;49.826;10.880;2023-04-10T05:10:41;99435;;;2.37;76.45
4326;BME280;58429;49.826;10.880;2023-04-10T05:11:41;99439;;;2.38;76.39
4326;BME280;58429;49.826;10.880;2023-04-10T05:12:41;99444;;;2.39;76.35
4326;BME280;58429;49.826;10.880;2023-04-10T05:13:41;99434;;;2.4;76.31
4326;BME280;58429;49.826;10.880;2023-04-10T05:14:41;99436;;;2.41;76.39
4326;BME280;58429;49.826;10.880;2023-04-10T05:15:41;99435;;;2.43;76.32
4326;BME280;58429;49.826;10.880;2023-04-10T05:16:41;99434;;;2.44;76.27
4326;BME280;58429;49.826;10.880;2023-04-10T05:17:41;99431;;;2.47;76.3
4326;BME280;58429;49.826;10.880;2023-04-10T05:18:41;99422;;;2.42;76.3
4326;BME280;58429;49.826;10.880;2023-04-10T05:19:41;99426;;;2.44;76.39
4326;BME280;58429;49.826;10.880;2023-04-10T05:20:41;99419;;;2.46;76.33
4326;BME280;58429;49.826;10.880;2023-04-10T05:21:41;99423;;;2.51;76.28
4326;BME280;58429;49.826;10.880;2023-04-10T05:22:41;99410;;;2.52;76.23
4326;BME280;58429;49.826;10.880;2023-04-10T05:23:41;99420;;;2.51;76.12
4326;BME280;58429;49.826;10.880;2023-04-10T05:24:41;99412;;;2.53;76.13
4326;BME280;58429;49.826;10.880;2023-04-10T05:25:41;99409;;;2.57;76.14
4326;BME280;58429;49.826;10.880;2023-04-10T05:26:41;99409;;;2.54;76.21
4326;BME280;58429;49.826;10.880;2023-04-10T05:27:41;99415;;;2.53;76.21
4326;BME280;58429;49.826;10.880;2023-04-10T05:28:41;99412;;;2.59;76.19
4326;BME280;58429;49.826;10.880;2023-04-10T05:29:41;99416;;;2.61;76.22
4326;BME280;58429;49.826;10.880;2023-04-10T05:30:41;99418;;;2.62;76.3
4326;BME280;58429;49.826;10.880;2023-04-10T05:31:41;99421;;;2.63;76.26
4326;BME280;58429;49.826;10.880;2023-04-10T05:32:41;99418;;;2.66;76.23
4326;BME280;58429;49.826;10.880;2023-04-10T05:33:41;99421;;;2.71;76.19
4326;BME280;58429;49.826;10.880;2023-04-10T05:34:41;99419;;;2.72;76.21
4326;BME280;58429;49.826;10.880;2023-04-10T05:35:41;99420;;;2.78;76.17
4326;BME280;58429;49.826;10.880;2023-04-10T05:36:41;99421;;;2.77;76.21